FBFT

Francistown Airport

Francistown, Botswana
METAR FBFT 220700Z 09013KT 9999 BKN015 14/06 Q1031
Observed Flight Rules
Oct-22 @ 07:00 UTC (an hour ago) Marginal Visual Flight Rules
Wind Visibility Clouds
90° at 13 knots 10,000+ meters
  • Broken at 1,500' AGL
Temperatures Readings
Current 14°C / 57°F
Dewpoint 6°C / 43°F
Humidity 59%
Altimeter 30.44" Hg
Pressure 1031 hPa
Elevation 1000
METAR FBFT 220700Z 09013KT 9999 BKN015 14/06 Q1031
Observed Flight Rules
Oct-22 @ 07:00 UTC
(an hour ago)
MVFR
Wind Visibility
90° at 13 knots 10,000+ meters
Clouds
  • Broken at 1,500' AGL
Temperature Dewpoint
14°C / 57°F 6°C / 43°F
Humidity Altimeter Pressure
59% 30.44" Hg 1031 hPa